Time;durP1;ratioP1;P1;durP2;ratioP2;P2;SDS_P1;SDS_P2;PMS_P1;PMS_P2;Temp;Humidity;BMP_temperature;BMP_pressure;BME280_temperature;BME280_humidity;BME280_pressure;Samples;Min_cycle;Max_cycle;Signal;HPM_P1;HPM_P2
2022/05/08 00:00:58;;;;;;;35.35;6.32;;;9.30;99.90;;;;;;5025577;28;20025;-76
2022/05/08 00:03:23;;;;;;;22.45;5.72;;;9.20;99.90;;;;;;5022142;28;20037;-76
2022/05/08 00:05:49;;;;;;;30.98;6.38;;;9.20;99.90;;;;;;5025023;28;20392;-74
2022/05/08 00:08:14;;;;;;;23.95;6.13;;;9.10;99.90;;;;;;5021460;28;20100;-75
2022/05/08 00:10:40;;;;;;;14.68;5.68;;;9.10;99.90;;;;;;5018698;28;20076;-75
2022/05/08 00:13:06;;;;;;;22.95;6.32;;;9.10;99.90;;;;;;5023058;28;20037;-75
2022/05/08 00:15:32;;;;;;;24.38;5.35;;;9.00;99.90;;;;;;5031885;28;20036;-74
2022/05/08 00:17:58;;;;;;;21.45;5.45;;;9.00;99.90;;;;;;5038028;28;20026;-74
2022/05/08 00:20:23;;;;;;;25.80;5.38;;;9.00;99.90;;;;;;5025559;28;20080;-74
2022/05/08 00:22:49;;;;;;;31.08;5.50;;;9.00;99.90;;;;;;5027675;28;20483;-75
2022/05/08 00:25:15;;;;;;;23.63;5.38;;;9.00;99.90;;;;;;5032227;28;20034;-74
2022/05/08 00:27:41;;;;;;;25.70;5.70;;;8.90;99.90;;;;;;5031936;28;20052;-74
2022/05/08 00:30:08;;;;;;;32.08;6.35;;;8.90;99.90;;;;;;5009171;28;20025;-75
2022/05/08 00:32:35;;;;;;;29.17;6.50;;;8.90;99.90;;;;;;5022202;28;20160;-75
2022/05/08 00:35:00;;;;;;;33.55;5.88;;;8.90;99.90;;;;;;5021131;28;20022;-74
2022/05/08 00:37:27;;;;;;;24.38;5.05;;;8.90;99.90;;;;;;5005005;28;20025;-74
2022/05/08 00:39:54;;;;;;;21.88;5.72;;;8.90;99.90;;;;;;5016439;28;20029;-74
2022/05/08 00:42:19;;;;;;;24.30;5.15;;;8.90;99.90;;;;;;4997351;28;20026;-77
2022/05/08 00:44:45;;;;;;;26.42;7.45;;;8.90;99.90;;;;;;5022556;28;20049;-74
2022/05/08 00:47:11;;;;;;;23.05;5.65;;;8.80;99.90;;;;;;5020791;28;20036;-75
2022/05/08 00:49:36;;;;;;;29.73;5.60;;;8.80;99.90;;;;;;5022668;28;20021;-74
2022/05/08 00:52:03;;;;;;;22.90;4.70;;;8.80;99.90;;;;;;5022131;28;20026;-75
2022/05/08 00:54:29;;;;;;;20.20;4.93;;;8.80;99.90;;;;;;5019949;28;20546;-75
2022/05/08 00:56:57;;;;;;;20.17;4.25;;;8.80;99.90;;;;;;5004301;28;20053;-76
2022/05/08 00:59:24;;;;;;;26.23;4.78;;;8.80;99.90;;;;;;5016509;28;20014;-75
2022/05/08 01:01:50;;;;;;;17.45;4.50;;;8.80;99.90;;;;;;5018793;28;20026;-75
2022/05/08 01:04:16;;;;;;;29.30;6.05;;;8.70;99.90;;;;;;5019795;28;20446;-74
2022/05/08 01:06:43;;;;;;;20.80;5.07;;;8.70;99.90;;;;;;5020484;28;20026;-75
2022/05/08 01:09:09;;;;;;;23.30;4.70;;;8.70;99.90;;;;;;5020847;28;20049;-75
2022/05/08 01:11:35;;;;;;;24.20;4.68;;;8.80;99.90;;;;;;5020121;28;20423;-75
2022/05/08 01:14:01;;;;;;;23.50;5.38;;;8.70;99.90;;;;;;5019953;28;20096;-75
2022/05/08 01:16:26;;;;;;;26.67;5.20;;;8.80;99.90;;;;;;5016556;28;20018;-75
2022/05/08 01:18:52;;;;;;;17.88;5.28;;;8.80;99.90;;;;;;4989304;28;20022;-76
2022/05/08 01:23:52;;;;;;;26.95;5.72;;;8.70;99.90;;;;;;5029745;28;20506;-48
2022/05/08 01:26:21;;;;;;;21.58;4.85;;;8.70;99.90;;;;;;5032295;28;20041;-52
2022/05/08 01:28:47;;;;;;;14.65;3.55;;;8.70;99.90;;;;;;5033318;28;20509;-50
2022/05/08 01:31:13;;;;;;;27.08;4.50;;;8.70;99.90;;;;;;5033427;28;20490;-48
2022/05/08 01:33:39;;;;;;;29.50;5.18;;;8.70;99.90;;;;;;5023654;28;20029;-51
2022/05/08 01:36:05;;;;;;;18.98;5.00;;;8.70;99.90;;;;;;5003170;28;20089;-48
2022/05/08 01:38:30;;;;;;;21.25;5.47;;;8.60;99.90;;;;;;5003030;28;20022;-49
2022/05/08 01:41:03;;;;;;;24.60;6.18;;;8.60;99.90;;;;;;5004218;28;20029;-49
2022/05/08 01:43:32;;;;;;;23.42;6.10;;;8.60;99.90;;;;;;5003636;28;20030;-48
2022/05/08 01:45:57;;;;;;;26.05;5.85;;;8.70;99.90;;;;;;5001965;28;20068;-50
2022/05/08 01:48:23;;;;;;;27.67;5.57;;;8.60;99.90;;;;;;4996146;28;20030;-49
2022/05/08 01:50:53;;;;;;;14.75;5.18;;;8.60;99.90;;;;;;4993604;28;20030;-48
2022/05/08 01:53:24;;;;;;;22.03;6.13;;;8.60;99.90;;;;;;4993747;28;20088;-50
2022/05/08 01:55:54;;;;;;;20.92;6.32;;;8.60;99.90;;;;;;4994822;28;20050;-49
2022/05/08 01:58:23;;;;;;;17.25;4.15;;;8.60;99.90;;;;;;4993861;28;20022;-49
2022/05/08 02:00:49;;;;;;;17.70;5.07;;;8.60;99.90;;;;;;4993606;28;20058;-49
2022/05/08 02:03:15;;;;;;;18.38;4.82;;;8.50;99.90;;;;;;4993492;28;20030;-50
2022/05/08 02:05:42;;;;;;;14.80;4.50;;;8.50;99.90;;;;;;4993642;28;20025;-48
2022/05/08 02:08:10;;;;;;;15.30;4.28;;;8.50;99.90;;;;;;4993643;28;20058;-48
2022/05/08 02:10:36;;;;;;;13.98;4.18;;;8.50;99.90;;;;;;4998556;28;20033;-47
2022/05/08 02:13:02;;;;;;;21.98;4.68;;;8.50;99.90;;;;;;4986197;28;20026;-48
2022/05/08 02:15:29;;;;;;;17.77;4.45;;;8.50;99.90;;;;;;5002730;28;20079;-49
2022/05/08 02:17:59;;;;;;;16.50;4.25;;;8.50;99.90;;;;;;5010067;28;20049;-50
2022/05/08 02:20:25;;;;;;;17.58;3.47;;;8.50;99.90;;;;;;5011536;28;20025;-50
2022/05/08 02:22:51;;;;;;;21.13;5.60;;;8.50;99.90;;;;;;5011073;28;20042;-52
2022/05/08 02:25:17;;;;;;;22.60;3.95;;;8.50;99.90;;;;;;5012755;28;20037;-49
2022/05/08 02:27:46;;;;;;;12.85;3.90;;;8.50;99.90;;;;;;5012526;28;20030;-48
2022/05/08 02:30:12;;;;;;;19.35;4.10;;;8.40;99.90;;;;;;5012676;28;20420;-49
2022/05/08 02:32:38;;;;;;;15.55;4.28;;;8.40;99.90;;;;;;5012863;28;20049;-52
2022/05/08 02:35:06;;;;;;;12.23;3.67;;;8.40;99.90;;;;;;5013086;28;20491;-49
2022/05/08 02:37:32;;;;;;;19.98;3.83;;;8.40;99.90;;;;;;5014127;28;20029;-51
2022/05/08 02:39:57;;;;;;;17.63;3.63;;;8.30;99.90;;;;;;5013104;28;20025;-50
2022/05/08 02:42:23;;;;;;;13.70;4.28;;;8.30;99.90;;;;;;5014150;28;20033;-50
2022/05/08 02:44:49;;;;;;;16.23;4.22;;;8.30;99.90;;;;;;5015535;28;20022;-49
2022/05/08 02:47:14;;;;;;;18.85;4.55;;;8.30;99.90;;;;;;5015682;28;20084;-52
2022/05/08 02:49:40;;;;;;;21.63;4.28;;;8.20;99.90;;;;;;5014688;28;20079;-51
2022/05/08 02:52:06;;;;;;;12.15;3.40;;;8.20;99.90;;;;;;5014507;28;20065;-50
2022/05/08 02:54:31;;;;;;;19.70;4.13;;;8.20;99.90;;;;;;5014074;28;20026;-51
2022/05/08 02:59:41;;;;;;;16.10;3.97;;;8.10;99.90;;;;;;5013719;28;20160;-49
2022/05/08 03:02:07;;;;;;;23.73;4.28;;;8.20;99.90;;;;;;5014312;28;20495;-49
2022/05/08 03:04:33;;;;;;;20.25;4.68;;;8.20;99.90;;;;;;5014034;28;20033;-50
2022/05/08 03:06:58;;;;;;;15.23;4.55;;;8.10;99.90;;;;;;4996353;28;20045;-50
2022/05/08 03:09:24;;;;;;;10.15;3.42;;;8.10;99.90;;;;;;5014078;28;20087;-49
2022/05/08 03:11:50;;;;;;;14.63;4.10;;;8.10;99.90;;;;;;5014128;28;20018;-50
2022/05/08 03:14:15;;;;;;;14.38;3.83;;;8.10;99.90;;;;;;5014094;28;20036;-50
2022/05/08 03:16:41;;;;;;;17.08;3.97;;;8.10;99.90;;;;;;5014026;28;20537;-52
2022/05/08 03:19:07;;;;;;;21.88;4.10;;;8.00;99.90;;;;;;5013710;28;20475;-50
2022/05/08 03:21:34;;;;;;;18.73;4.18;;;8.10;99.90;;;;;;5014074;28;20034;-49
2022/05/08 03:24:00;;;;;;;20.02;3.97;;;8.20;99.90;;;;;;5017229;28;20030;-49
2022/05/08 03:26:28;;;;;;;26.23;5.55;;;8.10;99.90;;;;;;5017125;28;20056;-50
2022/05/08 03:28:53;;;;;;;19.88;4.32;;;8.20;99.90;;;;;;5017154;28;20022;-49
2022/05/08 03:31:20;;;;;;;14.77;4.00;;;8.20;99.90;;;;;;5016816;28;20025;-48
2022/05/08 03:33:46;;;;;;;17.02;4.40;;;8.10;99.90;;;;;;5016358;28;20112;-53
2022/05/08 03:36:11;;;;;;;16.35;3.60;;;8.20;99.90;;;;;;5015807;28;20517;-54
2022/05/08 03:38:44;;;;;;;17.38;4.75;;;8.20;99.90;;;;;;5016291;28;20068;-49
2022/05/08 03:41:14;;;;;;;15.80;3.95;;;8.20;99.90;;;;;;5015556;28;20018;-53
2022/05/08 03:43:44;;;;;;;18.63;4.05;;;8.20;99.90;;;;;;4997926;28;20022;-50
2022/05/08 03:46:10;;;;;;;14.50;4.00;;;8.10;99.90;;;;;;5015871;28;20022;-52
2022/05/08 03:48:36;;;;;;;12.63;3.85;;;8.10;99.90;;;;;;5016011;28;20026;-50
2022/05/08 03:51:03;;;;;;;15.50;4.93;;;8.10;99.90;;;;;;5016133;28;20096;-53
2022/05/08 03:53:28;;;;;;;21.42;4.75;;;8.10;99.90;;;;;;4999116;28;20038;-51
2022/05/08 03:55:54;;;;;;;10.90;3.80;;;8.20;99.90;;;;;;5015733;28;20032;-52
2022/05/08 03:58:19;;;;;;;16.08;4.15;;;8.20;99.90;;;;;;5015996;28;20120;-53
2022/05/08 04:00:45;;;;;;;14.23;4.35;;;8.20;99.90;;;;;;5015438;28;20037;-53
2022/05/08 04:03:10;;;;;;;16.85;5.95;;;8.20;99.90;;;;;;5015442;28;20483;-49
2022/05/08 04:05:36;;;;;;;13.95;3.65;;;8.20;99.90;;;;;;5015353;28;20108;-50
2022/05/08 04:08:02;;;;;;;14.48;3.88;;;8.20;99.90;;;;;;5015420;28;20025;-49
2022/05/08 04:10:27;;;;;;;15.05;4.28;;;8.30;99.90;;;;;;5014833;28;20511;-48
2022/05/08 04:12:53;;;;;;;13.80;3.97;;;8.20;99.90;;;;;;5015008;28;20097;-49
2022/05/08 04:18:03;;;;;;;19.25;4.38;;;8.20;99.90;;;;;;5015241;28;20140;-48
2022/05/08 04:20:28;;;;;;;17.42;5.22;;;8.30;99.90;;;;;;5016161;28;20054;-51
2022/05/08 04:25:38;;;;;;;22.48;3.70;;;8.30;99.90;;;;;;5014958;28;20076;-49
2022/05/08 04:28:04;;;;;;;15.60;3.60;;;8.20;99.90;;;;;;5015047;28;20026;-48
2022/05/08 04:30:29;;;;;;;12.82;3.83;;;8.30;99.90;;;;;;5014611;28;20554;-48
2022/05/08 04:32:55;;;;;;;13.25;4.15;;;8.30;99.90;;;;;;4996482;28;20509;-49
2022/05/08 04:35:21;;;;;;;13.05;3.28;;;8.40;99.90;;;;;;5014500;28;20022;-47
2022/05/08 04:37:46;;;;;;;13.85;3.72;;;8.40;99.90;;;;;;5014909;28;20104;-48
2022/05/08 04:40:12;;;;;;;19.02;4.57;;;8.40;99.90;;;;;;4997021;28;20375;-47
2022/05/08 04:42:37;;;;;;;17.55;3.88;;;8.40;99.90;;;;;;5015217;28;20543;-47
2022/05/08 04:45:04;;;;;;;12.27;3.60;;;8.50;99.90;;;;;;5014448;28;20113;-50
2022/05/08 04:47:29;;;;;;;11.82;3.05;;;8.50;99.90;;;;;;5014397;28;20073;-47
2022/05/08 04:49:55;;;;;;;14.95;3.75;;;8.50;99.90;;;;;;5014508;28;20038;-47
2022/05/08 04:52:20;;;;;;;11.48;3.60;;;8.50;99.90;;;;;;5014545;28;20068;-51
2022/05/08 04:54:46;;;;;;;18.23;4.38;;;8.60;99.90;;;;;;5014303;28;20033;-48
2022/05/08 04:57:11;;;;;;;19.48;4.78;;;8.60;99.90;;;;;;5014716;28;20062;-48
2022/05/08 04:59:37;;;;;;;13.63;4.25;;;8.60;99.90;;;;;;5014406;28;20172;-51
2022/05/08 05:02:03;;;;;;;15.60;5.18;;;8.70;99.90;;;;;;5014512;28;20030;-49
2022/05/08 05:04:29;;;;;;;18.75;4.70;;;8.70;99.90;;;;;;5014345;28;20025;-49
2022/05/08 05:06:55;;;;;;;13.45;5.43;;;8.70;99.90;;;;;;5014080;28;20026;-50
2022/05/08 05:09:20;;;;;;;25.05;6.72;;;8.80;99.90;;;;;;5013865;28;20032;-51
2022/05/08 05:11:46;;;;;;;15.18;5.38;;;8.80;99.90;;;;;;5013985;28;20033;-49
2022/05/08 05:14:11;;;;;;;22.35;6.78;;;8.90;99.90;;;;;;5013747;28;20060;-52
2022/05/08 05:16:37;;;;;;;21.15;6.25;;;8.90;99.90;;;;;;4980132;28;20121;-52
2022/05/08 05:19:04;;;;;;;16.42;5.90;;;8.90;99.90;;;;;;5014099;28;20045;-53
2022/05/08 05:21:30;;;;;;;17.17;5.70;;;8.90;99.90;;;;;;5014171;28;20101;-50
2022/05/08 05:23:56;;;;;;;17.23;5.97;;;8.90;99.90;;;;;;5014339;28;20045;-51
2022/05/08 05:26:22;;;;;;;16.63;5.35;;;9.00;99.90;;;;;;5015136;28;20506;-49
2022/05/08 05:28:48;;;;;;;22.65;6.50;;;9.10;99.90;;;;;;5015170;28;20065;-50
2022/05/08 05:31:14;;;;;;;21.45;5.40;;;9.10;99.90;;;;;;4997234;28;20022;-54
2022/05/08 05:34:09;;;;;;;24.00;6.40;;;9.10;99.90;;;;;;5016281;28;20107;-51
2022/05/08 05:36:37;;;;;;;24.17;5.78;;;9.10;99.90;;;;;;5007972;28;20042;-48
2022/05/08 05:39:04;;;;;;;22.83;5.93;;;9.20;99.90;;;;;;5014686;28;20029;-49
2022/05/08 05:41:30;;;;;;;17.38;5.47;;;9.30;99.90;;;;;;5013821;28;20026;-49
2022/05/08 05:43:57;;;;;;;18.02;5.85;;;9.40;99.90;;;;;;5013192;28;20052;-49
2022/05/08 05:49:07;;;;;;;24.27;6.35;;;9.40;99.90;;;;;;5013488;28;20112;-48
2022/05/08 05:51:32;;;;;;;16.95;5.25;;;9.50;99.90;;;;;;5013554;28;20026;-50
2022/05/08 05:53:58;;;;;;;21.13;5.00;;;9.60;99.90;;;;;;5013315;28;20475;-48
2022/05/08 05:56:23;;;;;;;15.75;5.55;;;9.70;99.90;;;;;;5013659;28;20104;-50
2022/05/08 05:58:52;;;;;;;14.93;4.20;;;9.80;99.90;;;;;;5013585;28;20382;-50
2022/05/08 06:01:17;;;;;;;11.88;2.75;;;9.90;99.90;;;;;;5013356;28;20399;-49
2022/05/08 06:03:43;;;;;;;12.18;2.75;;;9.90;99.90;;;;;;4995889;28;20032;-49
2022/05/08 06:06:08;;;;;;;13.88;3.50;;;9.90;99.90;;;;;;5013005;28;20101;-48
2022/05/08 06:08:34;;;;;;;16.92;2.72;;;10.00;99.90;;;;;;5013429;28;20026;-50
2022/05/08 06:10:59;;;;;;;11.80;2.50;;;10.00;99.90;;;;;;5012965;28;20033;-50
2022/05/08 06:13:25;;;;;;;10.30;3.03;;;10.10;99.90;;;;;;5013260;28;20018;-50
2022/05/08 06:15:51;;;;;;;13.40;2.97;;;10.20;99.90;;;;;;5012899;28;20451;-48
2022/05/08 06:18:16;;;;;;;9.68;2.15;;;10.40;99.90;;;;;;4995901;28;20056;-48
2022/05/08 06:20:42;;;;;;;19.40;3.03;;;10.40;99.90;;;;;;5012917;28;20034;-48
2022/05/08 06:23:07;;;;;;;15.63;2.38;;;10.50;99.90;;;;;;5012860;28;20034;-52
2022/05/08 06:25:33;;;;;;;18.38;4.22;;;10.60;99.90;;;;;;5012770;28;20494;-49
2022/05/08 06:28:19;;;;;;;13.50;2.47;;;10.60;99.90;;;;;;5013259;28;20359;-50
2022/05/08 06:30:48;;;;;;;17.58;3.30;;;10.70;99.90;;;;;;5013339;28;20164;-47
2022/05/08 06:33:14;;;;;;;23.08;3.63;;;10.70;99.90;;;;;;5013042;28;20018;-48
2022/05/08 06:35:40;;;;;;;13.07;2.70;;;10.70;99.90;;;;;;5012721;28;20530;-48
2022/05/08 06:38:08;;;;;;;17.38;2.85;;;10.80;99.90;;;;;;5012776;28;20049;-49
2022/05/08 06:40:34;;;;;;;16.73;2.75;;;10.80;99.90;;;;;;4995008;28;20037;-49
2022/05/08 06:43:00;;;;;;;17.55;3.05;;;11.00;99.90;;;;;;5012837;28;20030;-50
2022/05/08 06:45:25;;;;;;;15.35;3.45;;;11.10;99.90;;;;;;5013412;28;20026;-49
2022/05/08 06:47:51;;;;;;;15.85;3.70;;;11.20;99.90;;;;;;5012662;28;20028;-50
2022/05/08 06:50:18;;;;;;;10.27;2.67;;;11.30;99.90;;;;;;5012748;28;20030;-48
2022/05/08 06:52:43;;;;;;;16.63;3.50;;;11.40;99.90;;;;;;5012941;28;20029;-50
2022/05/08 06:55:09;;;;;;;13.70;2.78;;;11.40;99.90;;;;;;5012552;28;20387;-48
2022/05/08 06:57:34;;;;;;;12.98;2.85;;;11.50;99.90;;;;;;4997685;28;20471;-49
2022/05/08 07:02:45;;;;;;;13.77;3.00;;;11.60;99.90;;;;;;5016958;28;20104;-48
2022/05/08 07:05:11;;;;;;;12.48;3.90;;;11.70;99.90;;;;;;4998903;28;20487;-49
2022/05/08 07:07:36;;;;;;;16.25;3.13;;;11.80;99.90;;;;;;5016320;28;20062;-50
2022/05/08 07:10:03;;;;;;;17.83;3.35;;;11.90;99.90;;;;;;5016587;28;20403;-49
2022/05/08 07:12:29;;;;;;;13.55;3.72;;;11.90;99.90;;;;;;5016633;28;20487;-51
2022/05/08 07:14:55;;;;;;;16.92;3.47;;;11.80;99.90;;;;;;5016100;28;20076;-50
2022/05/08 07:17:23;;;;;;;16.02;3.13;;;11.80;99.90;;;;;;5016052;28;20026;-48
2022/05/08 07:19:49;;;;;;;16.10;2.85;;;11.80;99.90;;;;;;4998778;28;20056;-51
2022/05/08 07:22:17;;;;;;;12.50;3.67;;;11.70;99.90;;;;;;5034569;23;20045;-55
2022/05/08 07:24:43;;;;;;;17.42;3.40;;;11.70;99.90;;;;;;5036213;28;20040;-57
2022/05/08 07:27:11;;;;;;;13.48;3.42;;;11.70;99.90;;;;;;5018984;28;20025;-53
2022/05/08 07:29:43;;;;;;;14.05;3.00;;;11.70;99.90;;;;;;5036034;28;20482;-56
2022/05/08 07:32:10;;;;;;;16.73;3.10;;;11.80;99.90;;;;;;5036305;28;20510;-56
2022/05/08 07:37:20;;;;;;;11.63;3.08;;;11.90;99.90;;;;;;5036127;28;20035;-55
2022/05/08 07:39:46;;;;;;;21.70;3.92;;;11.90;99.90;;;;;;5036156;28;20026;-54
2022/05/08 07:42:11;;;;;;;12.00;3.05;;;11.90;99.90;;;;;;5019144;28;20030;-53
2022/05/08 07:44:37;;;;;;;17.15;2.70;;;12.00;99.90;;;;;;5018212;28;20125;-56
2022/05/08 07:47:03;;;;;;;17.50;3.33;;;12.10;99.90;;;;;;5035968;28;20024;-52
2022/05/08 07:49:29;;;;;;;13.65;3.30;;;12.10;99.90;;;;;;5035521;28;20095;-57
2022/05/08 07:51:54;;;;;;;10.93;2.60;;;12.20;99.90;;;;;;5017976;28;20025;-54
2022/05/08 07:54:20;;;;;;;20.90;3.85;;;12.30;99.90;;;;;;5035827;28;20029;-54
2022/05/08 07:56:46;;;;;;;15.98;3.83;;;12.40;99.90;;;;;;5036171;28;20028;-55
2022/05/08 07:59:12;;;;;;;19.52;4.07;;;12.40;99.90;;;;;;5018028;28;20033;-56
2022/05/08 08:01:38;;;;;;;14.65;3.58;;;12.60;99.90;;;;;;5018074;28;20395;-53
2022/05/08 08:04:08;;;;;;;13.75;3.58;;;12.70;99.90;;;;;;5035863;28;20036;-57
2022/05/08 08:06:34;;;;;;;12.43;3.58;;;12.90;99.90;;;;;;5036426;28;20030;-57
2022/05/08 08:09:00;;;;;;;14.00;2.70;;;13.00;99.90;;;;;;5035515;28;20029;-58
2022/05/08 08:11:25;;;;;;;13.48;3.58;;;13.10;99.90;;;;;;5036400;28;20026;-58
2022/05/08 08:13:51;;;;;;;13.70;3.35;;;12.90;99.90;;;;;;5035786;28;20030;-56
2022/05/08 08:16:17;;;;;;;17.55;3.47;;;12.90;99.90;;;;;;5018306;28;20021;-58
2022/05/08 08:18:44;;;;;;;12.43;3.22;;;12.90;99.90;;;;;;5035717;28;20026;-58
2022/05/08 08:21:13;;;;;;;11.73;3.42;;;12.90;99.90;;;;;;5035471;28;20037;-57
2022/05/08 08:23:41;;;;;;;17.65;3.92;;;12.90;99.90;;;;;;5018545;28;20430;-56
2022/05/08 08:26:08;;;;;;;13.32;3.40;;;12.90;99.90;;;;;;5036572;28;20386;-57
2022/05/08 08:28:33;;;;;;;14.65;3.55;;;12.80;99.90;;;;;;5037148;28;20030;-56
2022/05/08 08:30:59;;;;;;;12.45;3.17;;;12.90;99.90;;;;;;5018502;28;20060;-56
2022/05/08 08:33:26;;;;;;;15.07;3.58;;;13.00;99.90;;;;;;5035730;28;20056;-57
2022/05/08 08:35:52;;;;;;;18.52;3.25;;;13.10;99.90;;;;;;5035145;28;20022;-58
2022/05/08 08:38:18;;;;;;;11.02;3.38;;;13.20;99.90;;;;;;5034856;28;20053;-58
2022/05/08 08:40:48;;;;;;;14.57;3.33;;;13.10;99.90;;;;;;5017175;28;20041;-54
2022/05/08 08:43:16;;;;;;;14.20;3.03;;;13.10;99.90;;;;;;5034802;28;20026;-53
2022/05/08 08:48:38;;;;;;;7.78;3.17;;;13.10;99.90;;;;;;5035741;28;20068;-58
2022/05/08 08:51:04;;;;;;;9.25;2.90;;;13.20;99.90;;;;;;5034883;28;20049;-56
2022/05/08 08:53:30;;;;;;;12.23;3.08;;;13.30;99.90;;;;;;5031475;28;20064;-57
2022/05/08 08:55:57;;;;;;;14.88;3.13;;;13.30;99.90;;;;;;5009305;28;20112;-57
2022/05/08 08:58:22;;;;;;;11.43;3.42;;;13.40;99.90;;;;;;5027780;28;20018;-57
2022/05/08 09:00:52;;;;;;;26.27;4.20;;;13.60;99.90;;;;;;5021683;28;20029;-55
2022/05/08 09:03:25;;;;;;;17.30;3.22;;;13.60;99.90;;;;;;4997139;28;20033;-54
2022/05/08 09:05:58;;;;;;;12.52;3.03;;;13.70;99.90;;;;;;5015070;28;20037;-55
2022/05/08 09:08:32;;;;;;;13.68;3.30;;;13.80;99.90;;;;;;5015577;28;20114;-55
2022/05/08 09:10:58;;;;;;;14.07;3.90;;;13.80;99.90;;;;;;5006109;28;20026;-55
2022/05/08 09:13:28;;;;;;;16.45;3.65;;;13.90;99.90;;;;;;5006616;28;20491;-55
2022/05/08 09:16:05;;;;;;;9.30;2.92;;;14.10;99.90;;;;;;5018452;28;20025;-54
2022/05/08 09:18:44;;;;;;;13.98;2.97;;;14.30;99.90;;;;;;5030182;28;20108;-57
2022/05/08 09:24:10;;;;;;;16.65;3.53;;;14.40;99.90;;;;;;5034834;28;20055;-57
2022/05/08 09:26:36;;;;;;;12.75;3.80;;;14.30;99.90;;;;;;5034792;28;20467;-53
2022/05/08 09:29:03;;;;;;;14.45;3.15;;;14.40;99.90;;;;;;5025578;28;20120;-57
2022/05/08 09:31:41;;;;;;;11.30;2.95;;;14.50;99.90;;;;;;5024417;28;20247;-55
2022/05/08 09:34:07;;;;;;;13.52;3.35;;;14.60;99.90;;;;;;5025159;28;20116;-56
2022/05/08 09:36:33;;;;;;;14.32;3.38;;;14.50;99.90;;;;;;5023632;28;20022;-54
2022/05/08 09:39:00;;;;;;;12.57;3.40;;;14.40;99.90;;;;;;5024533;28;20034;-54
2022/05/08 09:41:28;;;;;;;13.60;3.72;;;14.50;99.90;;;;;;5033664;28;20029;-55
2022/05/08 09:44:09;;;;;;;8.55;3.50;;;14.60;99.90;;;;;;5015965;28;20041;-57
2022/05/08 09:46:36;;;;;;;11.32;3.08;;;14.70;99.90;;;;;;5033871;28;20401;-53
2022/05/08 09:49:02;;;;;;;14.95;2.65;;;14.60;99.90;;;;;;5034525;28;20036;-57
2022/05/08 09:51:32;;;;;;;11.73;2.97;;;14.60;99.90;;;;;;5012463;28;20021;-56
2022/05/08 09:53:58;;;;;;;12.75;2.75;;;14.60;99.90;;;;;;5026836;28;20496;-55
2022/05/08 09:56:25;;;;;;;11.55;3.33;;;14.70;99.90;;;;;;5021318;28;20022;-53
2022/05/08 09:58:51;;;;;;;10.52;2.95;;;14.90;99.90;;;;;;5028867;28;20033;-53
2022/05/08 10:01:16;;;;;;;12.90;3.22;;;15.00;99.90;;;;;;5032768;28;20079;-56
2022/05/08 10:03:43;;;;;;;17.67;3.05;;;15.10;99.90;;;;;;5032428;28;20057;-54
2022/05/08 10:06:10;;;;;;;15.13;3.05;;;15.20;99.90;;;;;;5032740;28;20080;-54
2022/05/08 10:08:39;;;;;;;17.42;3.45;;;15.20;99.90;;;;;;5032628;28;20108;-57
2022/05/08 10:13:58;;;;;;;12.23;3.00;;;15.10;99.90;;;;;;5030053;28;20525;-57
2022/05/08 10:16:49;;;;;;;14.43;3.35;;;15.10;99.90;;;;;;5030665;28;20449;-57
2022/05/08 10:19:18;;;;;;;9.23;2.97;;;15.10;99.90;;;;;;5027430;28;20029;-54
2022/05/08 10:22:10;;;;;;;14.68;2.65;;;15.10;99.90;;;;;;5030692;28;20034;-55
2022/05/08 10:24:42;;;;;;;21.60;4.15;;;15.10;99.90;;;;;;5024680;28;20521;-53
2022/05/08 10:27:32;;;;;;;9.90;2.58;;;15.20;99.90;;;;;;5032095;28;20034;-54
2022/05/08 10:29:57;;;;;;;14.45;3.33;;;15.30;99.90;;;;;;5019962;28;20033;-52
2022/05/08 10:32:32;;;;;;;14.25;2.95;;;15.30;99.90;;;;;;5035375;28;20129;-55
2022/05/08 10:35:15;;;;;;;13.52;3.05;;;15.30;99.90;;;;;;5037794;28;20053;-57
2022/05/08 10:37:42;;;;;;;14.38;3.05;;;15.40;99.90;;;;;;5037299;28;20021;-57
2022/05/08 10:40:22;;;;;;;16.13;3.45;;;15.40;99.90;;;;;;5035825;28;20053;-56
2022/05/08 10:42:55;;;;;;;11.35;2.70;;;15.40;99.90;;;;;;5034974;28;20080;-54
2022/05/08 10:45:30;;;;;;;10.93;3.20;;;15.40;99.90;;;;;;5018585;28;20034;-56
2022/05/08 10:47:56;;;;;;;15.18;3.25;;;15.40;99.90;;;;;;5029235;28;20032;-56
2022/05/08 10:50:22;;;;;;;17.25;3.10;;;15.50;99.90;;;;;;5034921;28;20440;-53
2022/05/08 10:52:48;;;;;;;12.13;2.70;;;15.60;99.90;;;;;;5038209;28;20030;-57
2022/05/08 10:55:15;;;;;;;8.57;2.83;;;15.50;99.90;;;;;;5029321;28;20057;-55
2022/05/08 10:57:43;;;;;;;17.92;3.58;;;15.40;99.90;;;;;;5030660;28;20026;-53
2022/05/08 11:00:16;;;;;;;9.35;3.67;;;15.40;99.90;;;;;;5030475;28;20410;-54
2022/05/08 11:02:43;;;;;;;13.73;3.00;;;15.40;99.90;;;;;;5034185;28;20018;-56
2022/05/08 11:05:11;;;;;;;12.98;3.17;;;15.50;99.90;;;;;;5027043;28;20064;-54
2022/05/08 11:07:51;;;;;;;13.98;3.10;;;15.60;99.90;;;;;;5029042;28;20033;-58
2022/05/08 11:10:21;;;;;;;9.73;2.75;;;15.70;99.90;;;;;;5026578;28;20026;-54
2022/05/08 11:13:18;;;;;;;12.90;3.00;;;15.80;99.90;;;;;;5024774;28;20029;-54
2022/05/08 11:15:43;;;;;;;11.57;2.92;;;15.90;99.90;;;;;;5007273;28;20495;-56
2022/05/08 11:18:17;;;;;;;16.60;3.25;;;15.90;99.90;;;;;;5015928;28;20032;-57
2022/05/08 11:20:44;;;;;;;18.52;3.53;;;15.90;99.90;;;;;;5018116;28;20047;-57
2022/05/08 11:23:14;;;;;;;13.82;3.17;;;15.80;99.90;;;;;;5032980;28;20041;-55
2022/05/08 11:25:43;;;;;;;11.80;3.30;;;15.90;99.90;;;;;;5029481;28;20028;-53
2022/05/08 11:28:14;;;;;;;15.93;3.50;;;15.90;99.90;;;;;;5032334;28;20528;-55
2022/05/08 11:30:39;;;;;;;14.23;3.47;;;16.00;99.90;;;;;;5034726;28;20337;-56
2022/05/08 11:36:04;;;;;;;9.38;3.22;;;16.00;99.90;;;;;;5033423;28;20092;-54
2022/05/08 11:38:52;;;;;;;4.80;2.60;;;16.10;99.90;;;;;;5034607;28;20452;-57
2022/05/08 11:41:32;;;;;;;18.83;3.42;;;16.10;99.90;;;;;;5031490;28;20089;-57
2022/05/08 11:44:02;;;;;;;9.68;3.08;;;16.10;99.90;;;;;;5024004;28;20029;-54
2022/05/08 11:46:41;;;;;;;7.50;2.35;;;16.20;99.90;;;;;;5030943;28;20041;-56
2022/05/08 11:49:19;;;;;;;8.65;3.28;;;16.20;99.90;;;;;;5029542;28;20038;-56
2022/05/08 11:51:48;;;;;;;10.82;3.05;;;16.30;99.90;;;;;;5029853;28;20486;-53
2022/05/08 11:54:18;;;;;;;10.55;2.90;;;16.20;98.80;;;;;;5010524;28;20121;-55
2022/05/08 11:56:44;;;;;;;12.27;3.33;;;16.10;99.90;;;;;;5007529;28;20013;-56
2022/05/08 11:59:22;;;;;;;9.05;3.00;;;16.00;99.90;;;;;;5027814;28;20112;-54
2022/05/08 12:01:52;;;;;;;13.65;3.58;;;16.00;99.90;;;;;;5026567;28;20028;-56
2022/05/08 12:04:33;;;;;;;11.45;2.97;;;16.00;99.90;;;;;;5028163;28;20022;-55
2022/05/08 12:07:02;;;;;;;11.82;2.88;;;16.00;99.90;;;;;;5023540;28;20490;-56
2022/05/08 12:09:38;;;;;;;15.75;2.83;;;16.10;99.90;;;;;;5025606;28;20437;-56
2022/05/08 12:12:27;;;;;;;9.25;3.20;;;16.20;99.90;;;;;;5005612;28;20032;-55
2022/05/08 12:14:55;;;;;;;13.27;2.90;;;16.40;99.90;;;;;;5025390;28;20482;-57
2022/05/08 12:17:21;;;;;;;7.05;2.72;;;16.60;98.10;;;;;;5028643;28;20033;-57
2022/05/08 12:19:58;;;;;;;8.95;2.70;;;16.70;97.40;;;;;;5026421;28;20014;-56
2022/05/08 12:22:26;;;;;;;13.82;4.03;;;16.80;96.00;;;;;;5029799;28;20025;-57
2022/05/08 12:25:00;;;;;;;9.43;3.35;;;16.60;96.90;;;;;;5029587;28;20081;-55
2022/05/08 12:27:25;;;;;;;12.65;2.78;;;16.60;96.30;;;;;;5024495;28;20026;-56
2022/05/08 12:29:53;;;;;;;11.90;3.80;;;16.60;95.80;;;;;;5005429;28;20363;-56
2022/05/08 12:32:20;;;;;;;13.90;3.30;;;16.50;95.10;;;;;;5029379;28;20030;-54
2022/05/08 12:34:46;;;;;;;9.70;2.95;;;16.50;93.50;;;;;;5028014;28;20029;-58
2022/05/08 12:37:13;;;;;;;10.75;3.58;;;16.50;94.00;;;;;;5023294;28;20026;-56
2022/05/08 12:39:40;;;;;;;9.48;2.72;;;16.60;95.10;;;;;;5029073;28;20091;-56
2022/05/08 12:42:06;;;;;;;11.23;3.00;;;16.80;93.80;;;;;;5026510;28;20026;-56
2022/05/08 12:44:33;;;;;;;13.32;3.83;;;16.90;92.50;;;;;;5024048;28;20089;-56
2022/05/08 12:47:00;;;;;;;14.07;3.28;;;16.70;92.30;;;;;;5031713;28;20311;-55
2022/05/08 12:49:26;;;;;;;8.05;2.83;;;16.70;92.00;;;;;;5031018;28;20104;-53
2022/05/08 12:51:51;;;;;;;9.65;2.60;;;16.80;91.50;;;;;;5025546;28;20109;-57
2022/05/08 12:54:17;;;;;;;10.48;2.80;;;16.70;91.20;;;;;;5023966;28;20083;-58
2022/05/08 12:56:44;;;;;;;10.85;2.90;;;16.70;90.50;;;;;;5022474;28;20026;-57
2022/05/08 13:01:54;;;;;;;8.82;2.40;;;16.80;90.70;;;;;;5026367;28;20033;-54
2022/05/08 13:04:19;;;;;;;14.43;3.28;;;16.90;90.10;;;;;;5025245;28;20479;-53
2022/05/08 13:06:46;;;;;;;8.57;2.40;;;17.00;89.60;;;;;;5027568;28;20029;-53
2022/05/08 13:09:11;;;;;;;12.45;3.40;;;16.90;88.70;;;;;;5022057;28;20033;-56
2022/05/08 13:11:38;;;;;;;8.70;2.28;;;17.00;89.80;;;;;;5025332;28;20029;-56
2022/05/08 13:14:04;;;;;;;11.32;3.00;;;17.00;89.10;;;;;;5027216;28;20037;-56
2022/05/08 13:16:30;;;;;;;9.75;2.85;;;17.00;89.20;;;;;;5029069;28;20094;-57
2022/05/08 13:18:56;;;;;;;10.60;2.65;;;16.90;88.10;;;;;;5005947;28;20013;-56